Time;durP1;ratioP1;P1;durP2;ratioP2;P2;SDS_P1;SDS_P2;PMS_P1;PMS_P2;Temp;Humidity;BMP_temperature;BMP_pressure;BME280_temperature;BME280_humidity;BME280_pressure;Samples;Min_cycle;Max_cycle;Signal;HPM_P1;HPM_P2
2023/12/14 00:01:34;;;;;;;45.80;7.65;;;17.10;99.90;;;;;;4963506;28;20050;-83
2023/12/14 00:04:00;;;;;;;58.05;7.68;;;17.10;99.90;;;;;;4942922;28;20546;-84
2023/12/14 00:06:27;;;;;;;47.15;8.30;;;17.10;99.90;;;;;;4942762;28;20049;-86
2023/12/14 00:08:53;;;;;;;37.97;7.25;;;17.00;99.90;;;;;;4943814;28;20089;-86
2023/12/14 00:11:20;;;;;;;39.72;8.00;;;17.10;99.90;;;;;;4956533;28;20058;-85
2023/12/14 00:13:46;;;;;;;40.25;7.45;;;17.00;99.90;;;;;;4962857;28;20365;-85
2023/12/14 00:16:13;;;;;;;42.65;7.90;;;17.10;99.90;;;;;;4962431;28;20537;-82
2023/12/14 00:18:39;;;;;;;47.13;8.23;;;17.00;99.90;;;;;;4978049;28;20022;-83
2023/12/14 00:21:06;;;;;;;44.25;8.93;;;17.00;99.90;;;;;;4961803;28;20042;-83
2023/12/14 00:23:35;;;;;;;42.83;8.48;;;17.00;99.90;;;;;;4961620;28;20022;-83
2023/12/14 00:26:01;;;;;;;53.70;8.90;;;17.00;99.90;;;;;;4961738;28;20057;-82
2023/12/14 00:28:28;;;;;;;49.45;9.75;;;17.00;99.90;;;;;;4961801;28;20029;-83
2023/12/14 00:30:54;;;;;;;42.17;7.40;;;17.00;99.90;;;;;;4952495;28;20061;-83
2023/12/14 00:33:21;;;;;;;42.28;7.85;;;17.00;99.90;;;;;;4975640;28;20117;-83
2023/12/14 00:35:47;;;;;;;55.47;9.73;;;17.00;99.90;;;;;;4975802;28;20026;-83
2023/12/14 00:38:14;;;;;;;50.13;7.30;;;16.90;99.90;;;;;;4942463;28;20109;-83
2023/12/14 00:40:40;;;;;;;34.42;7.30;;;17.00;99.90;;;;;;4990410;28;20523;-83
2023/12/14 00:43:07;;;;;;;41.75;7.60;;;17.00;99.90;;;;;;4994994;28;20044;-83
2023/12/14 00:45:33;;;;;;;44.65;7.82;;;17.00;99.90;;;;;;4977568;28;20034;-83
2023/12/14 00:47:59;;;;;;;41.20;7.63;;;16.90;99.90;;;;;;4961596;28;20099;-82
2023/12/14 00:50:27;;;;;;;43.08;7.07;;;16.90;99.90;;;;;;4977704;28;20019;-83
2023/12/14 00:52:53;;;;;;;44.47;7.22;;;16.90;99.90;;;;;;4961234;28;20032;-82
2023/12/14 00:55:20;;;;;;;45.03;8.00;;;16.90;99.90;;;;;;4977454;28;20054;-83
2023/12/14 00:57:46;;;;;;;51.03;7.28;;;16.90;99.90;;;;;;4994832;28;20030;-82
2023/12/14 01:00:14;;;;;;;43.10;6.72;;;16.90;99.90;;;;;;4960946;28;20113;-83
2023/12/14 01:02:40;;;;;;;42.17;7.20;;;16.90;99.90;;;;;;4994701;28;20503;-82
2023/12/14 01:05:10;;;;;;;55.38;7.43;;;16.90;99.90;;;;;;4977308;28;20041;-83
2023/12/14 01:07:39;;;;;;;29.23;6.40;;;16.90;99.90;;;;;;4994632;28;20460;-83
2023/12/14 01:10:06;;;;;;;43.03;6.85;;;17.00;99.90;;;;;;4977061;28;20495;-83
2023/12/14 01:12:32;;;;;;;32.92;6.85;;;16.90;99.90;;;;;;4994552;28;20036;-83
2023/12/14 01:14:59;;;;;;;42.13;7.35;;;16.90;99.90;;;;;;4976856;28;20033;-83
2023/12/14 01:17:25;;;;;;;57.20;8.77;;;16.80;99.90;;;;;;4994296;28;20048;-83
2023/12/14 01:19:52;;;;;;;43.40;7.95;;;16.90;99.90;;;;;;4960764;28;20030;-82
2023/12/14 01:22:18;;;;;;;37.00;7.05;;;16.80;99.90;;;;;;4976882;28;20039;-83
2023/12/14 01:24:44;;;;;;;32.53;7.03;;;16.80;99.90;;;;;;4960704;28;20117;-82
2023/12/14 01:27:13;;;;;;;53.97;7.47;;;16.80;99.90;;;;;;4976773;28;20038;-83
2023/12/14 01:29:41;;;;;;;42.35;8.23;;;16.80;99.90;;;;;;4960645;28;20439;-83
2023/12/14 01:32:07;;;;;;;40.65;7.03;;;16.80;99.90;;;;;;4960145;28;20121;-82
2023/12/14 01:34:34;;;;;;;37.22;6.78;;;16.80;99.90;;;;;;4976646;28;20034;-83
2023/12/14 01:37:00;;;;;;;37.85;8.65;;;16.80;99.90;;;;;;4960634;28;20077;-82
2023/12/14 01:39:26;;;;;;;39.30;7.90;;;16.80;99.90;;;;;;4960449;28;20046;-83
2023/12/14 01:41:52;;;;;;;57.38;8.70;;;16.80;99.90;;;;;;4993902;28;20554;-83
2023/12/14 01:44:19;;;;;;;43.15;7.20;;;16.80;99.90;;;;;;4976574;28;20037;-83
2023/12/14 01:46:45;;;;;;;40.85;7.13;;;16.80;99.90;;;;;;4960326;28;20022;-82
2023/12/14 01:49:12;;;;;;;39.42;7.15;;;16.80;99.90;;;;;;4976482;28;20029;-83
2023/12/14 01:51:39;;;;;;;46.15;8.10;;;16.70;99.90;;;;;;4976455;28;20049;-83
2023/12/14 01:54:05;;;;;;;42.78;7.63;;;16.80;99.90;;;;;;4976378;28;20046;-83
2023/12/14 01:56:32;;;;;;;38.83;7.75;;;16.70;99.90;;;;;;4959975;28;20053;-83
2023/12/14 01:58:58;;;;;;;41.55;7.07;;;16.70;99.90;;;;;;4976292;28;20387;-83
2023/12/14 02:01:42;;;;;;;49.30;9.20;;;16.70;99.90;;;;;;4993718;28;20546;-83
2023/12/14 02:04:13;;;;;;;34.65;8.10;;;16.70;99.90;;;;;;4976630;28;20027;-83
2023/12/14 02:06:40;;;;;;;30.23;7.22;;;16.70;99.90;;;;;;4960463;28;20125;-83
2023/12/14 02:09:06;;;;;;;40.10;7.55;;;16.70;99.90;;;;;;4960412;28;20030;-82
2023/12/14 02:11:33;;;;;;;54.35;7.65;;;16.70;99.90;;;;;;4976200;28;20034;-83
2023/12/14 02:14:06;;;;;;;42.03;7.28;;;16.70;99.90;;;;;;4996199;28;20026;-83
2023/12/14 02:16:33;;;;;;;36.42;7.90;;;16.70;99.90;;;;;;4980228;28;20053;-82
2023/12/14 02:19:02;;;;;;;41.35;6.75;;;16.70;99.90;;;;;;4964340;28;20388;-83
2023/12/14 02:21:28;;;;;;;38.67;7.55;;;16.70;99.90;;;;;;4980142;28;20038;-82
2023/12/14 02:23:55;;;;;;;36.17;7.05;;;16.60;99.90;;;;;;4964392;28;20030;-83
2023/12/14 02:26:21;;;;;;;40.38;6.82;;;16.60;99.90;;;;;;4980302;28;20033;-83
2023/12/14 02:28:48;;;;;;;26.25;6.20;;;16.60;99.90;;;;;;4963841;28;20510;-83
2023/12/14 02:31:15;;;;;;;34.40;6.55;;;16.60;99.90;;;;;;4980000;28;20082;-83
2023/12/14 02:33:41;;;;;;;35.75;6.57;;;16.50;99.90;;;;;;4963858;28;20030;-83
2023/12/14 02:36:11;;;;;;;40.65;8.13;;;16.60;99.90;;;;;;4980054;28;20030;-83
2023/12/14 02:38:38;;;;;;;46.60;7.45;;;16.50;99.90;;;;;;4996939;28;20502;-82
2023/12/14 02:41:06;;;;;;;50.95;7.43;;;16.50;99.90;;;;;;4996905;28;20136;-83
2023/12/14 02:43:33;;;;;;;38.53;6.38;;;16.40;99.90;;;;;;4979850;28;20115;-82
2023/12/14 02:46:02;;;;;;;34.80;7.38;;;16.50;99.90;;;;;;4979624;28;20471;-83
2023/12/14 02:48:31;;;;;;;34.85;7.05;;;16.50;99.90;;;;;;4976223;28;20489;-83
2023/12/14 02:51:00;;;;;;;38.15;7.00;;;16.50;99.90;;;;;;4951774;28;20023;-82
2023/12/14 02:53:26;;;;;;;40.78;6.90;;;16.50;99.90;;;;;;4979594;28;20026;-83
2023/12/14 02:55:56;;;;;;;40.92;6.90;;;16.40;99.90;;;;;;4979572;28;20026;-82
2023/12/14 02:58:22;;;;;;;32.90;7.05;;;16.40;99.90;;;;;;4996805;28;20165;-83
2023/12/14 03:00:49;;;;;;;34.13;6.85;;;16.40;99.90;;;;;;4996707;28;20042;-83
2023/12/14 03:03:15;;;;;;;29.50;6.78;;;16.40;99.90;;;;;;4979464;28;20027;-83
2023/12/14 03:05:42;;;;;;;49.42;6.82;;;16.40;99.90;;;;;;4979335;28;20033;-83
2023/12/14 03:08:08;;;;;;;37.15;6.40;;;16.40;99.90;;;;;;4962965;28;20519;-83
2023/12/14 03:10:34;;;;;;;46.05;7.68;;;16.40;99.90;;;;;;4979551;28;20391;-82
2023/12/14 03:13:04;;;;;;;41.25;6.63;;;16.30;99.90;;;;;;4963339;28;20041;-83
2023/12/14 03:15:30;;;;;;;50.50;8.18;;;16.30;99.90;;;;;;4963000;28;20030;-83
2023/12/14 03:17:56;;;;;;;34.90;6.93;;;16.30;99.90;;;;;;4963019;28;20057;-83
2023/12/14 03:20:23;;;;;;;42.72;8.13;;;16.30;99.90;;;;;;4978869;28;20079;-83
2023/12/14 03:22:49;;;;;;;33.80;7.00;;;16.30;99.90;;;;;;4996359;28;20030;-81
2023/12/14 03:25:16;;;;;;;36.83;7.00;;;16.30;99.90;;;;;;4978920;28;20046;-83
2023/12/14 03:27:42;;;;;;;39.70;7.57;;;16.30;99.90;;;;;;4978774;28;20037;-83
2023/12/14 03:30:14;;;;;;;49.83;7.30;;;16.30;99.90;;;;;;4962761;28;20030;-82
2023/12/14 03:32:42;;;;;;;39.45;7.40;;;16.20;99.90;;;;;;4962791;28;20039;-82
2023/12/14 03:35:08;;;;;;;45.25;8.02;;;16.30;99.90;;;;;;4962487;28;20435;-83
2023/12/14 03:37:35;;;;;;;40.42;8.10;;;16.30;99.90;;;;;;4962395;28;20480;-81
2023/12/14 03:40:03;;;;;;;46.33;7.80;;;16.30;99.90;;;;;;4962460;28;20043;-82
2023/12/14 03:42:29;;;;;;;41.58;8.77;;;16.30;99.90;;;;;;4978610;28;20458;-82
2023/12/14 03:44:55;;;;;;;44.28;8.98;;;16.30;99.90;;;;;;4962586;28;20026;-81
2023/12/14 03:47:21;;;;;;;36.78;8.55;;;16.30;99.90;;;;;;4978169;28;20026;-82
2023/12/14 03:49:49;;;;;;;41.95;8.90;;;16.20;99.90;;;;;;4962455;28;20373;-82
2023/12/14 03:52:16;;;;;;;47.78;9.25;;;16.20;99.90;;;;;;4994891;28;20033;-82
2023/12/14 03:54:42;;;;;;;42.22;9.20;;;16.20;99.90;;;;;;4978552;28;20026;-83
2023/12/14 03:57:09;;;;;;;42.80;9.10;;;16.30;99.90;;;;;;4978142;28;20057;-82
2023/12/14 03:59:40;;;;;;;51.08;10.10;;;16.30;99.90;;;;;;4962293;28;20502;-82
2023/12/14 04:02:06;;;;;;;46.88;9.43;;;16.20;99.90;;;;;;4978146;28;20049;-86
2023/12/14 04:04:36;;;;;;;41.03;9.60;;;16.20;99.90;;;;;;4977775;28;20037;-82
2023/12/14 04:07:02;;;;;;;48.58;10.85;;;16.30;99.90;;;;;;4960362;28;20038;-82
2023/12/14 04:09:28;;;;;;;45.75;9.35;;;16.30;99.90;;;;;;4962022;28;20062;-82
2023/12/14 04:11:58;;;;;;;56.72;10.30;;;16.30;99.90;;;;;;4995527;28;20049;-82
2023/12/14 04:14:24;;;;;;;47.00;9.40;;;16.40;99.90;;;;;;4978290;28;20022;-81
2023/12/14 04:16:51;;;;;;;46.47;11.10;;;16.30;99.90;;;;;;4995576;28;20473;-84
2023/12/14 04:19:18;;;;;;;52.35;9.55;;;16.30;99.90;;;;;;4962068;28;20019;-83
2023/12/14 04:21:45;;;;;;;58.92;10.10;;;16.40;99.90;;;;;;4961885;28;20046;-83
2023/12/14 04:24:12;;;;;;;37.50;9.93;;;16.40;99.90;;;;;;4962434;28;20488;-85
2023/12/14 04:26:39;;;;;;;42.78;10.48;;;16.40;99.90;;;;;;4962205;28;20030;-84
2023/12/14 04:29:11;;;;;;;44.58;9.48;;;16.40;99.90;;;;;;4962454;28;20038;-84
2023/12/14 04:31:39;;;;;;;52.55;10.52;;;16.40;99.90;;;;;;4966399;28;20034;-82
2023/12/14 04:34:11;;;;;;;68.63;11.80;;;16.40;99.90;;;;;;4977645;28;20062;-84
2023/12/14 04:36:38;;;;;;;44.08;9.77;;;16.30;99.90;;;;;;4994732;28;20080;-83
2023/12/14 04:39:04;;;;;;;45.60;10.93;;;16.30;99.90;;;;;;4961741;28;20026;-83
2023/12/14 04:41:30;;;;;;;43.33;9.95;;;16.40;99.90;;;;;;4995019;28;20133;-83
2023/12/14 04:43:57;;;;;;;52.90;9.45;;;16.30;99.90;;;;;;4994966;28;20034;-82
2023/12/14 04:46:24;;;;;;;44.15;10.75;;;16.30;99.90;;;;;;4994801;28;20034;-81
2023/12/14 04:48:50;;;;;;;56.65;12.02;;;16.30;99.90;;;;;;4994605;28;20536;-82
2023/12/14 04:51:16;;;;;;;66.53;10.30;;;16.30;99.90;;;;;;4961196;28;20545;-82
2023/12/14 04:53:43;;;;;;;42.15;9.77;;;16.30;99.90;;;;;;4961188;28;20503;-81
2023/12/14 04:56:13;;;;;;;56.55;11.80;;;16.30;99.90;;;;;;4977202;28;20484;-81
2023/12/14 04:58:40;;;;;;;60.13;11.45;;;16.30;99.90;;;;;;4994260;28;20026;-81
2023/12/14 05:01:07;;;;;;;39.22;9.48;;;16.30;99.90;;;;;;4994511;28;20093;-80
2023/12/14 05:03:35;;;;;;;55.95;11.38;;;16.30;99.90;;;;;;4994369;28;20030;-79
2023/12/14 05:06:06;;;;;;;59.22;12.25;;;16.20;99.90;;;;;;4976889;28;20023;-80
2023/12/14 05:08:32;;;;;;;63.78;11.75;;;16.20;99.90;;;;;;4976739;28;20041;-81
2023/12/14 05:10:59;;;;;;;54.40;11.80;;;16.20;99.90;;;;;;4979240;28;20018;-81
2023/12/14 05:13:25;;;;;;;41.95;10.02;;;16.20;99.90;;;;;;4994331;28;20109;-81
2023/12/14 05:15:52;;;;;;;54.53;11.43;;;16.20;99.90;;;;;;4994484;28;20029;-82
2023/12/14 05:18:19;;;;;;;50.58;11.10;;;16.20;99.90;;;;;;4977016;28;20096;-81
2023/12/14 05:20:48;;;;;;;63.35;11.63;;;16.20;99.90;;;;;;4976446;28;20030;-80
2023/12/14 05:23:14;;;;;;;61.92;12.80;;;16.30;99.90;;;;;;4960492;28;20026;-80
2023/12/14 05:25:41;;;;;;;54.75;10.93;;;16.40;99.90;;;;;;4976874;28;20579;-82
2023/12/14 05:28:07;;;;;;;70.55;11.88;;;16.40;99.90;;;;;;4976324;28;20026;-81
2023/12/14 05:30:33;;;;;;;64.20;11.35;;;16.40;99.90;;;;;;4976817;28;20031;-82
2023/12/14 05:33:00;;;;;;;47.65;11.10;;;16.40;99.90;;;;;;4993926;28;20033;-82
2023/12/14 05:35:26;;;;;;;58.33;11.77;;;16.40;99.90;;;;;;4976621;28;20022;-82
2023/12/14 05:37:52;;;;;;;63.42;11.48;;;16.40;99.90;;;;;;4960681;28;20026;-82
2023/12/14 05:40:19;;;;;;;67.03;11.68;;;16.50;99.90;;;;;;4976451;28;20069;-82
2023/12/14 05:42:45;;;;;;;79.82;13.70;;;16.50;99.90;;;;;;4967011;28;20057;-81
2023/12/14 05:45:12;;;;;;;63.10;13.85;;;16.60;99.90;;;;;;4976738;28;20037;-82
2023/12/14 05:47:39;;;;;;;61.40;11.77;;;16.60;99.90;;;;;;4959546;28;20034;-82
2023/12/14 05:50:09;;;;;;;64.18;13.15;;;16.60;99.90;;;;;;4960309;28;20533;-81
2023/12/14 05:52:36;;;;;;;58.63;12.25;;;16.60;99.90;;;;;;4960188;28;20080;-82
2023/12/14 05:55:03;;;;;;;82.68;12.57;;;16.60;99.90;;;;;;4976235;28;20030;-82
2023/12/14 05:57:29;;;;;;;62.80;13.18;;;16.50;99.90;;;;;;4959933;28;20033;-82
2023/12/14 05:59:56;;;;;;;73.32;13.70;;;16.50;99.90;;;;;;4975932;28;20049;-82
2023/12/14 06:02:23;;;;;;;59.80;12.63;;;16.50;99.90;;;;;;4975971;28;20558;-82
2023/12/14 06:04:49;;;;;;;73.28;13.48;;;16.50;99.90;;;;;;4993361;28;20023;-82
2023/12/14 06:07:16;;;;;;;60.80;14.18;;;16.50;99.90;;;;;;4993269;28;20026;-82
2023/12/14 06:09:46;;;;;;;79.53;14.48;;;16.60;99.90;;;;;;4976222;28;20110;-82
2023/12/14 06:12:13;;;;;;;60.08;12.82;;;16.60;99.90;;;;;;4976788;28;20030;-81
2023/12/14 06:14:40;;;;;;;74.97;13.70;;;16.50;99.90;;;;;;4960022;28;20487;-82
2023/12/14 06:17:06;;;;;;;75.78;13.10;;;16.60;99.90;;;;;;4975969;28;20030;-82
2023/12/14 06:19:33;;;;;;;73.28;14.35;;;16.50;99.90;;;;;;4993191;28;20076;-82
2023/12/14 06:21:59;;;;;;;63.25;14.23;;;16.60;99.90;;;;;;4993325;28;20101;-82
2023/12/14 06:24:26;;;;;;;67.80;13.07;;;16.50;99.90;;;;;;4993339;28;20019;-82
2023/12/14 06:26:52;;;;;;;73.97;14.43;;;16.60;99.90;;;;;;4976178;28;20031;-82
2023/12/14 06:29:19;;;;;;;64.75;14.05;;;16.60;99.90;;;;;;4975748;28;20025;-81
2023/12/14 06:31:49;;;;;;;69.65;14.43;;;16.60;99.90;;;;;;4992908;28;20109;-82
2023/12/14 06:34:15;;;;;;;72.97;14.85;;;16.60;99.90;;;;;;4993356;28;20031;-83
2023/12/14 06:36:44;;;;;;;68.13;14.48;;;16.60;99.90;;;;;;4992825;28;20022;-82
2023/12/14 06:39:10;;;;;;;65.05;13.30;;;16.60;99.90;;;;;;4975614;28;20046;-81
2023/12/14 06:41:37;;;;;;;52.72;12.93;;;16.60;99.90;;;;;;4993389;28;20494;-82
2023/12/14 06:44:04;;;;;;;81.57;15.45;;;16.50;99.90;;;;;;4975957;28;20084;-83
2023/12/14 06:46:31;;;;;;;59.97;12.80;;;16.50;99.90;;;;;;4993084;28;20034;-83
2023/12/14 06:48:58;;;;;;;47.65;12.38;;;16.50;99.90;;;;;;4959726;28;20031;-83
2023/12/14 06:51:25;;;;;;;59.08;15.57;;;16.50;99.90;;;;;;4975852;28;20041;-82
2023/12/14 06:53:52;;;;;;;61.50;14.50;;;16.50;99.90;;;;;;4975855;28;20037;-82
2023/12/14 06:56:19;;;;;;;49.30;12.55;;;16.60;99.90;;;;;;4975880;28;20030;-83
2023/12/14 06:58:49;;;;;;;50.42;13.15;;;16.60;99.90;;;;;;4976740;28;20033;-84
2023/12/14 07:01:19;;;;;;;54.58;11.35;;;16.60;99.90;;;;;;4963831;28;20037;-83
2023/12/14 07:03:45;;;;;;;47.95;10.73;;;16.60;99.90;;;;;;4979821;28;20022;-83
2023/12/14 07:06:14;;;;;;;51.50;10.38;;;16.60;99.90;;;;;;4963401;28;20117;-84
2023/12/14 07:08:44;;;;;;;50.72;9.93;;;16.70;99.90;;;;;;4963216;28;20030;-83
2023/12/14 07:11:11;;;;;;;45.78;9.18;;;16.80;99.90;;;;;;4963443;28;20021;-83
2023/12/14 07:13:38;;;;;;;38.67;7.18;;;16.90;99.90;;;;;;4978981;28;20093;-83
2023/12/14 07:16:10;;;;;;;44.75;8.90;;;16.90;99.90;;;;;;4979248;28;20030;-83
2023/12/14 07:18:37;;;;;;;32.63;7.65;;;16.70;99.90;;;;;;4979239;28;20037;-83
2023/12/14 07:21:04;;;;;;;31.40;6.60;;;16.70;99.90;;;;;;4963168;28;20034;-83
2023/12/14 07:23:31;;;;;;;32.80;6.15;;;16.70;99.90;;;;;;4963241;28;20355;-83
2023/12/14 07:25:58;;;;;;;31.23;6.70;;;16.70;99.90;;;;;;4963210;28;20026;-82
2023/12/14 07:28:25;;;;;;;35.38;6.88;;;16.70;99.90;;;;;;4962878;28;20026;-84
2023/12/14 07:30:53;;;;;;;38.67;6.95;;;16.70;99.90;;;;;;4939718;29;20181;-82
2023/12/14 07:33:19;;;;;;;31.10;6.97;;;16.70;99.90;;;;;;4955806;29;20058;-85
2023/12/14 07:35:46;;;;;;;28.05;6.65;;;16.70;99.90;;;;;;4956923;29;20036;-90
2023/12/14 07:38:13;;;;;;;28.52;7.22;;;16.70;99.90;;;;;;4956609;29;20038;-88
2023/12/14 07:40:40;;;;;;;34.85;6.57;;;16.70;99.90;;;;;;4912531;29;20405;-85
2023/12/14 07:43:07;;;;;;;33.78;7.57;;;16.80;99.90;;;;;;4920560;29;20497;-81
2023/12/14 07:45:34;;;;;;;26.90;6.72;;;16.90;99.90;;;;;;4904707;29;20023;-83
2023/12/14 07:48:06;;;;;;;28.80;6.80;;;16.90;99.90;;;;;;4920116;29;20027;-83
2023/12/14 07:50:36;;;;;;;37.55;8.77;;;16.90;99.90;;;;;;4920204;29;20093;-83
2023/12/14 07:53:02;;;;;;;34.08;7.03;;;16.90;99.90;;;;;;4885656;29;20397;-82
2023/12/14 07:55:30;;;;;;;42.50;7.50;;;16.90;99.90;;;;;;4917044;29;20046;-83
2023/12/14 07:57:56;;;;;;;30.67;7.72;;;17.00;99.90;;;;;;4919340;29;20031;-83
2023/12/14 08:00:22;;;;;;;30.85;6.40;;;17.00;99.90;;;;;;4904077;29;20024;-83
2023/12/14 08:02:49;;;;;;;33.40;6.57;;;17.00;99.90;;;;;;4919903;29;20131;-83
2023/12/14 08:05:16;;;;;;;31.10;6.25;;;17.00;99.90;;;;;;4919763;29;20028;-83
2023/12/14 08:07:42;;;;;;;28.88;7.20;;;17.00;99.90;;;;;;4930681;28;20069;-85
2023/12/14 08:10:10;;;;;;;34.30;9.50;;;17.10;99.90;;;;;;4958591;28;20042;-81
2023/12/14 08:12:36;;;;;;;27.50;7.07;;;17.10;99.90;;;;;;4955535;29;20027;-82
2023/12/14 08:15:03;;;;;;;37.42;8.48;;;17.10;99.90;;;;;;4923864;29;20027;-82
2023/12/14 08:17:29;;;;;;;34.10;7.97;;;17.20;99.90;;;;;;4939448;29;20491;-82
2023/12/14 08:19:59;;;;;;;34.05;8.18;;;17.10;99.90;;;;;;4939597;29;20019;-82
2023/12/14 08:22:26;;;;;;;34.33;7.97;;;17.20;99.90;;;;;;4953272;28;20086;-82
2023/12/14 08:24:54;;;;;;;29.10;7.53;;;17.30;99.90;;;;;;4958516;28;20076;-82
2023/12/14 08:27:20;;;;;;;37.70;9.52;;;17.40;99.90;;;;;;4958499;28;20396;-82
2023/12/14 08:29:47;;;;;;;27.50;9.85;;;17.60;99.90;;;;;;4958363;28;20038;-82
2023/12/14 08:32:13;;;;;;;37.22;10.05;;;17.50;99.90;;;;;;4942283;28;20134;-82
2023/12/14 08:34:42;;;;;;;29.23;9.88;;;17.40;99.90;;;;;;4942278;28;20031;-82
2023/12/14 08:37:08;;;;;;;27.80;10.07;;;17.30;99.90;;;;;;4975706;28;20042;-81
2023/12/14 08:39:34;;;;;;;26.52;8.35;;;17.30;99.90;;;;;;4958033;28;20531;-82
2023/12/14 08:42:01;;;;;;;26.63;8.18;;;17.30;99.90;;;;;;4958068;28;20417;-82
2023/12/14 08:44:28;;;;;;;20.27;8.30;;;17.20;99.90;;;;;;4942248;28;20113;-82
2023/12/14 08:46:57;;;;;;;30.58;9.25;;;17.20;99.90;;;;;;4958229;28;20030;-82
2023/12/14 08:49:26;;;;;;;25.00;9.27;;;17.20;99.90;;;;;;4975421;28;20035;-83
2023/12/14 08:51:54;;;;;;;19.70;8.68;;;17.30;99.90;;;;;;4964540;28;20027;-83
2023/12/14 08:54:21;;;;;;;21.30;8.82;;;17.40;99.90;;;;;;4958025;28;20484;-82
2023/12/14 08:56:48;;;;;;;27.83;10.75;;;17.40;99.90;;;;;;4957813;28;20435;-82
2023/12/14 08:59:16;;;;;;;35.10;10.38;;;17.50;99.90;;;;;;4989625;28;20078;-81
2023/12/14 09:01:44;;;;;;;29.33;10.32;;;17.50;99.90;;;;;;4974895;28;20035;-83
2023/12/14 09:04:10;;;;;;;26.20;10.93;;;17.40;99.90;;;;;;4973954;28;20030;-83
2023/12/14 09:06:37;;;;;;;25.08;10.98;;;17.50;99.90;;;;;;4957815;28;20039;-82
2023/12/14 09:09:04;;;;;;;33.67;10.90;;;17.60;99.90;;;;;;4941749;28;20026;-86
2023/12/14 09:11:30;;;;;;;26.50;10.30;;;17.60;99.90;;;;;;4976545;28;20031;-82
2023/12/14 09:13:56;;;;;;;26.70;11.73;;;17.60;99.90;;;;;;4973718;28;20475;-81
2023/12/14 09:16:26;;;;;;;26.08;10.98;;;17.60;99.90;;;;;;4975047;28;20055;-83
2023/12/14 09:18:53;;;;;;;30.63;11.57;;;17.70;99.90;;;;;;4973953;28;20081;-84
2023/12/14 09:21:19;;;;;;;27.17;11.90;;;17.70;99.90;;;;;;4974580;28;20035;-86
2023/12/14 09:23:46;;;;;;;28.70;11.23;;;17.80;99.90;;;;;;4974844;28;20117;-87
2023/12/14 09:26:12;;;;;;;26.10;11.23;;;17.90;99.90;;;;;;4969416;28;20031;-85
2023/12/14 09:28:39;;;;;;;17.05;10.57;;;17.90;99.90;;;;;;4974251;28;20034;-86
2023/12/14 09:31:06;;;;;;;27.30;11.98;;;18.00;99.90;;;;;;4958380;28;20034;-86
2023/12/14 09:33:32;;;;;;;26.15;11.27;;;18.10;99.90;;;;;;4974390;28;20039;-86
2023/12/14 09:35:59;;;;;;;26.65;12.68;;;18.10;99.90;;;;;;4942312;28;20022;-86
2023/12/14 09:38:25;;;;;;;23.20;12.82;;;18.20;99.90;;;;;;4974112;28;20038;-86
2023/12/14 09:40:51;;;;;;;26.85;13.80;;;18.20;99.90;;;;;;4974314;28;20074;-88
2023/12/14 09:43:18;;;;;;;20.02;12.70;;;18.20;99.90;;;;;;4974694;28;20053;-89
2023/12/14 09:45:45;;;;;;;28.70;14.00;;;18.30;99.90;;;;;;4974557;28;20030;-89
2023/12/14 09:48:13;;;;;;;23.98;12.23;;;18.30;99.90;;;;;;4942544;28;20035;-88
2023/12/14 09:50:40;;;;;;;24.42;13.25;;;18.20;99.90;;;;;;4942423;28;20033;-89
2023/12/14 09:53:07;;;;;;;25.98;13.98;;;18.20;99.90;;;;;;4975739;28;20055;-88
2023/12/14 09:55:34;;;;;;;21.75;12.77;;;18.10;99.90;;;;;;4974467;28;20122;-88
2023/12/14 09:58:02;;;;;;;23.88;13.95;;;18.10;99.90;;;;;;4959602;28;20071;-89
2023/12/14 10:00:40;;;;;;;21.20;13.45;;;18.20;99.90;;;;;;4923021;29;20035;-88
2023/12/14 10:03:31;;;;;;;20.65;13.13;;;18.20;99.90;;;;;;4956990;28;20038;-88
2023/12/14 10:06:01;;;;;;;24.25;12.73;;;18.20;99.90;;;;;;4941638;28;20031;-88
2023/12/14 10:08:32;;;;;;;22.90;12.40;;;18.20;99.90;;;;;;4941675;28;20102;-89
2023/12/14 10:11:00;;;;;;;21.25;12.55;;;18.20;99.90;;;;;;4942399;28;20081;-89
2023/12/14 10:13:39;;;;;;;15.38;12.23;;;18.20;99.90;;;;;;4942307;28;20027;-88
2023/12/14 10:16:06;;;;;;;21.17;12.43;;;18.30;99.90;;;;;;4942316;28;20026;-88
2023/12/14 10:18:36;;;;;;;17.38;12.07;;;18.30;99.90;;;;;;4942362;28;20074;-88
2023/12/14 10:21:08;;;;;;;24.23;12.82;;;18.40;99.90;;;;;;4942225;28;20129;-88
2023/12/14 10:23:35;;;;;;;23.05;13.43;;;18.50;99.90;;;;;;4957937;28;20526;-89
2023/12/14 10:26:01;;;;;;;22.42;12.88;;;18.60;99.90;;;;;;4958017;28;20039;-89
2023/12/14 10:28:28;;;;;;;20.67;13.00;;;18.60;99.90;;;;;;4957910;28;20400;-89
2023/12/14 10:30:54;;;;;;;23.67;12.80;;;18.70;99.90;;;;;;4942063;28;20023;-89
2023/12/14 10:33:21;;;;;;;16.77;13.52;;;18.70;99.90;;;;;;4958228;28;20038;-89
2023/12/14 10:35:48;;;;;;;22.50;14.75;;;18.70;99.90;;;;;;4961816;28;20034;-88
2023/12/14 10:38:19;;;;;;;21.65;14.63;;;18.90;99.90;;;;;;4945752;28;20069;-88
2023/12/14 10:40:53;;;;;;;27.45;17.98;;;18.90;99.90;;;;;;4959237;28;20042;-89
2023/12/14 10:43:22;;;;;;;27.15;16.15;;;19.00;99.90;;;;;;4965434;28;20116;-88
2023/12/14 10:45:48;;;;;;;26.88;17.30;;;19.00;99.90;;;;;;4964963;28;20146;-88
2023/12/14 10:48:20;;;;;;;31.35;16.40;;;19.10;99.90;;;;;;4965364;28;20161;-90
2023/12/14 10:50:48;;;;;;;29.73;16.15;;;19.10;99.90;;;;;;4964895;28;20026;-87
2023/12/14 10:53:15;;;;;;;26.27;17.00;;;19.30;99.90;;;;;;4964755;28;20387;-90
2023/12/14 10:55:46;;;;;;;37.85;16.80;;;19.40;99.90;;;;;;4964769;28;20401;-89
2023/12/14 10:58:16;;;;;;;22.13;15.57;;;19.40;99.90;;;;;;4965693;28;20061;-89
2023/12/14 11:01:10;;;;;;;22.95;16.35;;;19.50;99.90;;;;;;4981149;28;20046;-89
2023/12/14 11:03:37;;;;;;;;;;;19.50;99.90;;;;;;4966634;28;20085;-88
2023/12/14 11:06:15;;;;;;;25.98;16.05;;;19.50;99.90;;;;;;4964793;28;19917;-89
2023/12/14 11:09:10;;;;;;;22.98;15.57;;;19.60;99.90;;;;;;4980557;28;20538;-89
2023/12/14 11:11:58;;;;;;;24.45;15.93;;;19.50;99.90;;;;;;4964617;28;20049;-89
2023/12/14 11:14:28;;;;;;;29.17;16.17;;;19.50;99.90;;;;;;4964357;28;20062;-90
2023/12/14 11:17:05;;;;;;;20.58;16.83;;;19.70;99.90;;;;;;4964388;28;20434;-89
2023/12/14 11:19:36;;;;;;;27.58;18.20;;;19.90;99.90;;;;;;4964274;28;20142;-91
2023/12/14 11:22:10;;;;;;;25.98;17.55;;;19.90;99.90;;;;;;4964464;28;20085;-89
2023/12/14 11:24:37;;;;;;;28.80;15.60;;;19.80;99.90;;;;;;4964492;28;20023;-89
2023/12/14 11:27:07;;;;;;;31.50;12.95;;;19.40;99.90;;;;;;4964258;28;20064;-87
2023/12/14 11:29:38;;;;;;;27.25;13.13;;;18.80;99.90;;;;;;4964125;28;20423;-88
2023/12/14 11:32:07;;;;;;;29.20;12.07;;;18.50;99.90;;;;;;4964148;28;20058;-89
2023/12/14 11:34:33;;;;;;;29.42;10.52;;;18.10;99.90;;;;;;4963882;28;20050;-90
2023/12/14 11:36:59;;;;;;;30.00;9.63;;;17.80;99.90;;;;;;4964440;28;20399;-90
2023/12/14 11:39:31;;;;;;;29.00;11.40;;;17.60;99.90;;;;;;4964031;28;20086;-89
2023/12/14 11:42:03;;;;;;;27.27;10.25;;;17.60;99.90;;;;;;4957637;29;20035;-88
2023/12/14 11:44:30;;;;;;;18.17;9.07;;;17.60;99.90;;;;;;4925597;28;20027;-90
2023/12/14 11:46:59;;;;;;;23.35;9.02;;;17.50;99.90;;;;;;4940484;29;20027;-90
2023/12/14 11:49:27;;;;;;;16.08;8.98;;;17.50;99.90;;;;;;4941371;29;20023;-92
2023/12/14 11:51:55;;;;;;;16.77;9.23;;;17.40;99.90;;;;;;4927885;29;20031;-91
2023/12/14 11:54:22;;;;;;;14.63;9.38;;;17.40;99.90;;;;;;4941257;29;20039;-91
2023/12/14 11:56:50;;;;;;;13.63;8.55;;;17.20;99.90;;;;;;4941661;29;20038;-92
2023/12/14 11:59:21;;;;;;;12.00;9.50;;;17.00;99.90;;;;;;4957417;28;20035;-89
2023/12/14 12:02:01;;;;;;;20.40;9.60;;;16.90;99.90;;;;;;4957100;29;20069;-91
2023/12/14 12:04:28;;;;;;;13.50;8.40;;;16.80;99.90;;;;;;4957202;29;20053;-90
2023/12/14 12:07:07;;;;;;;14.45;8.20;;;16.60;99.90;;;;;;4937901;28;20049;-89
2023/12/14 12:09:36;;;;;;;22.13;9.23;;;16.50;99.90;;;;;;4944165;28;20038;-90
2023/12/14 12:12:05;;;;;;;19.45;7.82;;;16.40;99.90;;;;;;4944295;28;20370;-90
2023/12/14 12:14:35;;;;;;;17.60;7.20;;;16.40;99.90;;;;;;4944254;28;20452;-91
2023/12/14 12:17:04;;;;;;;9.48;6.60;;;16.30;99.90;;;;;;4944092;28;20034;-88
2023/12/14 12:19:36;;;;;;;17.80;6.90;;;16.20;99.90;;;;;;4944890;28;20027;-88
2023/12/14 12:22:09;;;;;;;13.52;6.10;;;16.20;99.90;;;;;;4960662;28;20098;-88
2023/12/14 12:24:36;;;;;;;12.07;6.47;;;16.10;99.90;;;;;;4976182;28;20030;-90
2023/12/14 12:27:03;;;;;;;11.60;6.25;;;16.10;99.90;;;;;;4943558;28;20058;-89
2023/12/14 12:29:30;;;;;;;14.50;6.45;;;16.10;99.90;;;;;;4959983;28;20496;-89
2023/12/14 12:31:57;;;;;;;18.33;6.70;;;16.00;99.90;;;;;;4943483;28;20551;-89
2023/12/14 12:34:24;;;;;;;12.23;6.50;;;16.00;99.90;;;;;;4959974;28;20047;-89
2023/12/14 12:36:50;;;;;;;10.20;5.65;;;16.00;99.90;;;;;;4943846;28;20026;-89